Date,TemperatureHighF,TemperatureAvgF,TemperatureLowF,DewpointHighF,DewpointAvgF,DewpointLowF,HumidityHigh,HumidityAvg,HumidityLow,PressureMaxIn,PressureMinIn,WindSpeedMaxMPH,WindSpeedAvgMPH,GustSpeedMaxMPH,PrecipitationSumIn
2013-1-1,51.1,47.7,43.0,50.3,44.4,33.3,98,89,64,30.03,29.83,2,0,0,0.69
2013-1-2,55.6,49.4,45.5,50.2,47.3,45.0,98,93,76,30.03,29.79,4,1,0,0.08
2013-1-3,48.2,42.5,27.7,46.1,41.3,26.7,98,96,86,30.18,29.98,6,2,0,0.00
2013-1-4,53.4,34.1,21.4,37.5,28.1,19.7,98,81,46,30.25,30.11,4,0,0,0.00
2013-1-5,50.2,35.4,19.8,38.7,28.5,17.9,97,78,47,30.30,30.13,3,0,0,0.01
2013-1-6,59.0,43.2,28.6,46.5,39.1,27.4,98,87,60,30.13,29.94,4,1,0,0.02
2013-1-7,54.9,36.5,23.5,38.5,29.1,22.5,98,78,45,30.31,30.11,6,1,0,0.01
2013-1-8,55.2,39.4,23.2,43.2,34.3,21.5,98,83,62,30.35,30.25,4,0,0,0.00
2013-1-9,68.0,54.7,46.2,58.2,50.8,42.5,98,87,71,30.35,30.26,2,0,0,0.00
2013-1-10,68.2,55.5,43.3,58.4,51.6,42.8,98,88,68,30.39,30.23,6,2,0,0.01
2013-1-11,56.5,52.8,51.8,55.9,52.3,51.3,98,98,98,30.23,30.05,4,1,0,0.71
2013-1-12,72.5,59.0,51.1,67.9,57.5,50.6,98,95,82,30.07,29.98,3,0,0,0.02
2013-1-13,70.5,58.6,50.5,66.4,57.3,50.0,98,96,85,30.05,29.94,2,0,0,0.00
2013-1-14,66.9,62.2,55.6,66.3,61.6,55.0,98,98,98,30.02,29.94,4,0,0,0.82
2013-1-15,62.2,55.4,46.9,61.6,54.8,46.4,98,98,98,30.02,29.92,7,2,0,1.08
2013-1-16,53.6,49.7,46.0,53.0,49.2,45.5,98,98,98,29.92,29.85,4,1,0,0.70
2013-1-17,53.4,48.8,34.2,52.8,48.3,33.7,98,98,98,30.10,29.62,10,3,0,2.99
2013-1-18,55.0,38.5,27.3,40.5,30.0,21.7,98,77,29,30.39,30.11,7,1,0,0.01
2013-1-19,54.5,35.6,22.1,37.8,29.0,20.4,98,80,44,30.38,30.10,3,1,0,0.00
2013-1-20,65.5,41.9,25.9,43.1,33.7,24.9,98,77,41,30.08,29.91,5,0,0,0.00
2013-1-21,63.1,41.7,24.4,41.1,29.4,21.9,98,66,35,29.98,29.85,8,1,0,0.00
2013-1-22,48.9,36.3,26.8,22.7,18.3,11.6,72,50,22,30.13,29.93,5,1,0,0.00
2013-1-23,52.9,36.8,19.8,33.1,24.6,14.8,91,63,40,30.22,29.97,6,1,0,0.00
2013-1-24,59.4,42.3,27.5,37.4,24.3,9.7,93,54,23,30.37,29.90,10,3,0,0.00
2013-1-25,30.2,27.0,22.5,27.6,18.7,9.8,93,72,47,30.39,29.99,4,0,0,0.00
2013-1-26,54.1,36.4,27.1,40.5,31.4,25.4,98,84,51,30.22,29.98,3,0,0,0.06
2013-1-27,45.3,36.7,25.5,36.4,31.0,24.3,98,81,64,30.45,30.22,7,1,0,0.00
2013-1-28,54.5,45.5,39.2,47.3,40.0,34.7,97,81,67,30.34,30.17,2,0,0,0.00
2013-1-29,69.4,53.5,35.1,61.9,50.9,34.3,98,92,76,30.18,29.91,5,0,0,0.01
2013-1-30,68.9,61.9,46.0,65.5,60.4,45.5,98,95,88,29.90,29.37,10,3,0,1.88
2013-1-31,51.1,41.1,31.8,44.8,31.1,25.2,98,71,41,29.98,29.50,7,2,0,0.01
2013-2-1,48.7,36.0,20.5,30.2,16.7,4.6,87,52,20,30.25,29.88,6,1,0,0.00
2013-2-2,47.7,31.7,17.2,36.3,23.7,12.7,98,77,27,30.26,29.94,5,1,0,0.15
2013-2-3,55.6,40.2,27.9,41.9,32.2,25.9,98,76,42,29.94,29.78,5,1,0,0.01
2013-2-4,53.1,35.9,23.9,35.3,28.2,22.2,96,76,44,30.04,29.90,3,0,0,0.00
2013-2-5,62.6,43.6,27.1,48.1,37.6,25.9,98,81,55,29.91,29.81,5,1,0,0.00
2013-2-6,69.1,45.3,28.6,45.0,32.2,24.3,98,69,20,30.08,29.91,5,0,0,0.00
2013-2-7,49.3,44.6,36.7,43.4,37.3,30.1,98,78,52,30.11,29.87,10,3,0,0.57
2013-2-8,62.4,46.5,30.4,53.1,41.7,28.6,98,85,53,30.01,29.79,6,1,0,0.00
2013-2-9,63.1,42.3,25.2,38.8,29.9,23.7,96,68,23,30.21,30.00,5,1,0,0.00
2013-2-10,59.0,45.2,30.6,47.2,37.8,28.3,98,78,43,30.30,30.06,9,2,0,0.74
2013-2-11,57.6,51.1,46.6,57.0,50.6,46.1,98,98,98,30.05,29.89,3,0,0,0.23
2013-2-12,61.2,48.6,39.2,46.9,42.1,32.1,98,82,37,30.00,29.78,6,1,0,0.17
2013-2-13,52.9,44.3,31.1,49.7,42.9,30.1,98,95,83,29.79,29.56,5,1,0,0.08
2013-2-14,54.5,37.4,24.6,39.4,32.3,23.1,98,84,54,29.95,29.77,6,1,0,0.00
2013-2-15,65.5,43.3,24.6,45.2,34.2,23.1,98,75,38,30.00,29.83,7,1,0,0.00
2013-2-16,46.9,36.2,24.4,36.4,29.8,15.7,96,78,55,29.94,29.74,9,1,0,0.06
2013-2-17,48.0,32.4,20.7,21.2,14.5,9.3,85,51,22,30.14,29.94,5,1,0,0.03
2013-2-18,57.9,36.3,19.0,32.5,24.2,16.0,94,66,32,30.26,30.10,6,1,0,0.00
2013-2-19,52.7,39.6,27.0,47.2,35.5,24.2,98,86,57,30.09,29.80,5,1,0,0.26
2013-2-20,59.0,38.3,19.8,35.4,23.8,13.1,95,63,20,30.03,29.93,5,1,0,0.00
2013-2-21,60.6,42.8,23.5,41.2,26.6,19.1,94,60,22,30.12,29.95,5,1,0,0.05
2013-2-22,43.2,40.2,38.3,40.7,39.5,37.8,98,97,89,30.15,29.99,5,2,0,0.54
2013-2-23,46.8,42.6,39.0,46.3,42.1,38.5,98,98,98,29.99,29.72,4,1,0,0.52
2013-2-24,67.5,50.1,34.7,49.9,42.5,32.9,98,79,39,29.88,29.75,5,1,0,0.01
2013-2-25,50.2,41.7,32.4,34.9,32.1,29.5,98,71,53,30.04,29.87,12,4,0,0.01
2013-2-26,44.6,38.8,34.2,44.1,38.3,33.4,98,98,93,29.89,29.47,10,3,0,0.78
2013-2-27,58.1,46.7,34.2,45.3,38.8,33.4,98,76,54,29.71,29.58,6,2,0,0.00
2013-2-28,54.7,41.7,26.2,38.0,30.5,23.4,90,66,44,29.80,29.64,5,1,0,0.00
2013-3-1,55.6,39.4,21.4,36.7,29.6,19.4,94,71,46,29.84,29.73,4,1,0,0.00
2013-3-2,54.5,39.5,26.4,38.3,34.0,23.9,94,81,50,29.83,29.74,6,1,0,0.04
2013-3-3,50.2,33.1,18.7,34.8,22.0,16.5,95,68,35,29.89,29.77,5,1,0,0.00
2013-3-4,56.5,36.7,15.8,34.4,23.4,13.0,94,64,25,30.06,29.89,6,1,0,0.00
2013-3-5,55.8,42.6,29.1,47.5,39.7,26.3,98,90,72,29.97,29.55,5,1,0,0.67
2013-3-6,52.7,39.0,26.4,34.2,28.6,23.2,91,68,44,30.01,29.63,7,2,0,0.00
2013-3-7,59.5,39.7,21.2,37.6,29.7,19.2,96,71,39,30.14,30.01,7,1,0,0.00
2013-3-8,62.6,42.5,23.7,36.1,29.2,21.5,95,64,26,30.22,30.08,6,1,0,0.00
2013-3-9,62.8,43.9,24.6,40.5,31.8,22.6,95,67,35,30.26,30.12,5,1,0,0.00
2013-3-10,69.6,50.2,32.5,43.2,38.5,30.6,96,69,35,30.19,30.02,10,2,0,0.00
2013-3-11,66.9,54.0,40.6,56.8,49.7,38.2,98,86,67,30.05,29.71,12,2,0,1.16
2013-3-12,72.5,57.4,41.5,56.6,48.8,31.6,98,78,33,29.91,29.64,4,1,0,0.22
2013-3-13,61.7,44.8,29.3,42.2,30.2,22.3,95,61,29,30.07,29.90,7,1,0,0.00
2013-3-14,56.5,38.3,21.6,29.7,24.4,19.1,91,62,31,30.22,30.05,6,1,0,0.00
2013-3-15,74.5,49.9,25.3,46.7,36.4,23.0,93,64,33,30.10,29.81,5,1,0,0.00
2013-3-16,80.8,65.4,53.6,54.6,48.2,43.8,72,55,36,29.83,29.65,5,2,0,0.00
2013-3-17,79.5,61.5,43.2,55.8,49.4,41.3,96,68,44,29.89,29.75,7,1,0,0.00
2013-3-18,54.0,44.2,41.7,46.3,42.2,40.8,98,93,75,30.00,29.76,10,4,0,0.68
2013-3-19,71.6,53.1,37.8,58.1,36.9,24.4,98,64,19,29.95,29.77,5,1,0,0.01
2013-3-20,61.0,45.2,30.9,37.9,26.0,18.0,94,55,19,30.02,29.71,6,1,0,0.00
2013-3-21,54.3,41.1,25.7,30.3,16.8,7.9,75,41,20,29.84,29.70,5,1,0,0.00
2013-3-22,52.9,37.5,21.6,33.0,24.5,18.6,91,63,34,29.96,29.84,5,1,0,0.00
2013-3-23,62.4,51.6,39.2,61.5,49.5,32.3,98,93,76,29.93,29.75,5,1,0,0.18
2013-3-24,52.7,48.2,42.8,52.2,47.2,42.3,98,96,90,29.78,29.43,11,3,0,1.40
2013-3-25,49.1,40.7,29.8,42.7,30.9,23.4,98,69,49,29.84,29.44,7,2,0,0.01
2013-3-26,52.2,38.4,23.5,34.9,26.3,21.0,93,64,42,30.10,29.82,4,1,0,0.00
2013-3-27,59.2,38.9,19.6,37.8,25.1,17.2,94,63,28,30.19,30.04,7,1,0,0.00
2013-3-28,66.6,41.8,21.9,39.1,25.9,14.2,96,62,13,30.23,30.05,5,1,0,0.00
2013-3-29,62.8,45.0,23.4,43.2,32.3,21.2,95,66,29,30.24,30.10,4,1,0,0.00
2013-3-30,71.1,55.1,41.9,50.5,45.6,41.4,98,74,40,30.11,29.92,6,1,0,0.01
2013-3-31,72.7,59.0,51.1,63.9,55.4,50.2,98,89,59,29.95,29.74,6,1,0,0.85
2013-4-1,77.2,62.0,46.0,60.7,48.8,41.0,98,68,31,29.88,29.73,5,1,0,0.02
2013-4-2,74.7,54.6,34.9,45.7,35.8,24.2,97,57,23,30.05,29.87,5,1,0,0.00
2013-4-3,61.9,54.2,47.7,41.7,31.1,22.3,73,43,29,30.16,30.00,9,3,0,0.00
2013-4-4,51.1,46.7,40.1,48.1,39.5,28.7,98,79,50,30.13,29.87,12,3,0,0.61
2013-4-5,69.8,52.1,39.2,52.0,44.8,38.7,98,80,37,29.95,29.81,9,1,0,0.00
2013-4-6,73.4,53.2,31.8,53.9,39.3,30.8,98,66,31,30.12,29.96,6,1,0,0.00
2013-4-7,73.2,56.9,36.5,54.2,46.7,35.2,98,72,46,30.15,29.99,8,1,0,0.00
2013-4-8,80.2,62.7,44.8,61.6,53.8,44.0,98,76,47,30.07,29.95,9,1,0,0.00
2013-4-9,85.1,65.1,47.7,63.9,56.3,47.2,98,77,46,30.11,29.99,6,1,0,0.00
2013-4-10,86.5,67.9,50.4,66.1,58.8,49.9,98,76,45,30.03,29.85,7,1,0,0.00
2013-4-11,82.4,67.3,52.2,67.9,61.3,51.7,98,83,55,29.88,29.60,9,2,0,0.00
2013-4-12,81.1,68.5,53.8,73.2,56.7,39.8,98,71,34,29.73,29.55,7,2,0,1.16
2013-4-13,81.1,61.1,38.5,52.7,43.4,36.2,98,58,20,29.90,29.73,6,1,0,0.00
2013-4-14,71.2,58.2,41.5,57.0,48.6,40.0,97,73,42,29.99,29.85,6,1,0,0.02
2013-4-15,72.0,62.7,55.0,63.5,59.0,54.4,98,88,70,30.08,29.85,6,2,0,0.24
2013-4-16,82.0,67.7,59.4,65.5,61.5,58.6,98,83,54,30.19,30.05,6,1,0,0.00
2013-4-17,84.2,66.6,58.1,68.8,62.9,57.5,98,90,58,30.14,30.02,7,1,0,0.96
2013-4-18,81.7,68.6,57.4,70.9,62.7,56.8,98,84,55,30.04,29.85,6,1,0,0.01
2013-4-19,69.4,62.4,47.8,67.8,61.2,47.3,98,96,88,29.86,29.66,8,2,0,1.22
2013-4-20,67.8,51.5,34.2,57.4,41.4,33.7,98,74,36,30.16,29.83,7,1,0,0.01
2013-4-21,67.8,53.7,37.2,45.0,40.4,35.8,97,65,37,30.30,30.16,10,3,0,0.00
2013-4-22,66.7,53.4,41.0,45.9,42.5,39.1,93,69,45,30.29,30.07,9,3,0,0.00
2013-4-23,75.6,55.7,35.8,52.7,45.5,35.0,98,73,43,30.16,29.98,7,1,0,0.00
2013-4-24,78.3,60.0,42.8,64.2,55.1,42.3,98,86,56,30.04,29.92,5,1,0,0.01
2013-4-25,77.0,62.2,48.0,58.2,49.1,39.0,98,66,36,30.17,29.96,5,2,0,0.00
2013-4-26,75.0,57.2,35.6,51.1,42.4,34.5,98,64,31,30.33,30.17,9,2,0,0.00
2013-4-27,66.4,56.9,53.6,61.4,55.1,51.3,98,94,82,30.26,30.12,5,0,0,0.24
2013-4-28,55.2,53.6,51.8,54.6,53.1,51.3,98,98,98,30.16,29.92,4,1,0,2.53
2013-4-29,75.7,62.2,53.8,69.7,58.8,53.2,98,90,63,29.95,29.80,7,1,0,0.06
2013-4-30,77.5,64.1,48.4,68.0,58.4,47.9,98,84,62,30.05,29.86,9,2,0,0.00
2013-5-1,69.8,63.2,55.4,60.3,58.1,54.8,98,84,69,30.15,30.05,10,3,0,0.00
2013-5-2,62.4,59.8,57.0,60.1,58.3,56.4,98,95,91,30.16,30.09,9,4,0,0.01
2013-5-3,65.3,59.3,56.5,59.4,57.1,55.9,98,93,80,30.10,29.95,9,4,0,0.04
2013-5-4,59.0,54.3,51.8,56.4,51.1,46.6,98,89,72,29.95,29.81,10,4,0,1.05
2013-5-5,55.4,52.7,49.8,54.8,52.1,49.3,98,98,98,29.82,29.69,11,4,0,2.23
2013-5-6,68.2,57.6,44.4,58.1,52.6,43.9,98,85,62,29.80,29.68,8,1,0,0.01
2013-5-7,75.6,58.3,41.4,61.3,51.3,40.9,98,80,49,29.84,29.74,6,1,0,0.00
2013-5-8,79.0,61.9,45.1,66.2,56.4,44.6,98,84,59,29.93,29.81,3,0,0,0.00
2013-5-9,85.5,66.6,46.8,68.6,58.4,46.3,98,78,48,29.98,29.90,4,1,0,0.00
2013-5-10,85.3,68.3,51.3,70.8,62.1,50.8,98,83,54,29.97,29.83,9,0,0,0.00
2013-5-11,83.7,69.3,58.6,69.7,64.3,58.0,98,86,62,29.86,29.71,5,1,0,0.03
2013-5-12,80.1,63.8,45.3,65.1,49.2,31.9,98,67,20,29.94,29.74,4,1,0,0.01
2013-5-13,74.7,56.1,34.9,52.2,40.5,30.8,98,64,21,30.09,29.91,5,1,0,0.00
2013-5-14,77.5,59.1,35.1,56.7,47.4,34.2,98,70,36,30.16,29.98,7,1,0,0.00
2013-5-15,89.6,70.9,51.4,68.5,60.2,50.9,98,73,45,30.00,29.83,6,1,0,0.00
2013-5-16,86.2,69.1,53.6,69.9,62.2,53.0,98,81,54,29.95,29.86,4,0,0,0.00
2013-5-17,87.8,70.6,55.0,71.1,62.9,54.4,98,79,51,30.00,29.91,4,0,0,0.00
2013-5-18,78.3,68.2,59.4,71.0,65.6,58.8,98,92,70,30.03,29.92,7,1,0,1.64
2013-5-19,80.8,70.4,61.5,75.0,68.1,60.9,98,93,76,30.00,29.90,4,0,0,0.15
2013-5-20,86.0,71.4,60.6,74.6,67.4,60.0,98,88,62,30.01,29.90,5,1,0,0.00
2013-5-21,91.6,74.8,61.7,77.8,69.0,61.1,98,84,57,29.94,29.81,4,0,0,0.01
2013-5-22,85.8,73.3,61.3,75.4,68.5,60.7,98,86,67,29.91,29.73,7,1,0,1.53
2013-5-23,84.0,71.6,63.7,73.0,65.7,59.9,98,83,52,29.85,29.72,5,1,0,0.26
2013-5-24,82.9,67.2,52.2,66.5,51.7,39.3,98,63,27,30.11,29.80,7,2,0,0.00
2013-5-25,80.4,62.4,41.5,58.6,50.8,41.0,98,70,37,30.22,30.06,6,1,0,0.00
2013-5-26,77.0,62.3,49.6,59.1,53.8,49.1,98,77,46,30.21,30.05,6,1,0,0.00
2013-5-27,84.4,68.8,49.8,67.0,59.6,49.3,98,76,49,30.17,30.02,6,1,0,0.00
2013-5-28,84.2,70.7,58.1,69.5,64.1,57.5,98,82,53,30.13,30.03,6,1,0,0.00
2013-5-29,84.9,72.1,56.8,70.6,64.8,56.2,98,80,56,30.14,30.04,5,1,0,0.00
2013-5-30,84.0,72.4,59.2,72.9,65.9,58.6,98,82,55,30.18,30.05,5,1,0,0.00
2013-5-31,88.2,74.6,62.2,74.5,68.1,61.6,98,82,57,30.13,29.98,7,1,0,0.00
2013-6-1,86.2,74.9,64.8,74.8,69.3,64.2,98,84,60,30.04,29.90,8,1,0,0.56
2013-6-2,79.9,71.2,66.0,74.9,69.6,65.4,98,95,83,29.95,29.79,6,1,0,3.24
2013-6-3,87.8,73.3,65.1,76.3,70.2,64.5,98,91,67,29.84,29.73,7,0,0,0.01
2013-6-4,86.0,74.8,60.8,73.3,68.3,60.2,98,82,59,29.95,29.83,7,2,0,0.00
2013-6-5,85.5,72.5,65.1,74.4,69.4,64.5,98,91,69,29.99,29.83,7,2,0,1.58
2013-6-6,77.5,70.2,64.6,75.6,69.4,64.0,98,98,94,29.89,29.68,7,0,0,0.82
2013-6-7,79.5,69.4,66.2,74.8,68.4,65.6,98,97,83,29.69,29.57,2,0,0,0.42
2013-6-8,93.6,76.2,65.1,76.3,70.5,64.5,98,85,54,29.99,29.73,5,1,0,0.01
2013-6-9,91.4,74.4,64.8,77.6,70.6,64.2,98,89,61,30.05,29.93,7,1,0,0.38
2013-6-10,89.2,73.8,67.8,78.4,71.5,67.2,98,93,66,29.95,29.81,6,2,0,1.18
2013-6-11,102.2,81.3,68.4,81.1,73.1,67.8,98,80,45,29.90,29.81,3,0,0,1.17
2013-6-12,102.4,80.8,63.0,83.1,73.6,62.4,98,82,47,29.93,29.81,3,0,0,0.00
2013-6-13,103.1,81.1,67.8,80.4,73.8,67.2,98,82,44,29.82,29.59,5,1,0,0.30
2013-6-14,94.3,76.0,59.0,73.7,64.6,58.4,98,73,39,29.93,29.70,6,1,0,0.00
2013-6-15,98.4,75.8,55.9,70.6,64.6,55.3,98,73,39,30.04,29.94,4,1,0,0.00
2013-6-16,96.3,76.9,59.4,76.4,68.3,58.8,98,78,46,30.07,29.91,6,1,0,0.00
2013-6-17,92.8,77.6,69.6,83.4,73.7,69.0,98,89,63,29.97,29.82,6,0,0,0.44
2013-6-18,92.1,76.6,70.2,84.1,73.9,69.6,98,92,65,29.86,29.68,6,1,0,0.29
2013-6-19,88.2,76.2,65.8,73.1,69.5,65.2,98,82,56,30.00,29.80,7,1,0,0.00
2013-6-20,89.4,74.6,63.3,73.7,68.1,62.7,98,82,56,30.12,29.99,7,2,0,0.00
2013-6-21,91.0,74.7,61.9,71.7,66.4,61.3,98,79,47,30.17,30.05,6,1,0,0.00
2013-6-22,95.9,76.4,59.7,70.7,65.7,59.1,98,75,37,30.13,29.98,5,1,0,0.00
2013-6-23,94.6,76.9,63.0,79.3,70.7,62.4,98,84,54,30.11,29.98,6,1,0,0.06
2013-6-24,97.7,80.7,66.7,87.3,74.1,66.1,98,83,53,30.12,29.98,6,1,0,0.01
2013-6-25,99.1,81.2,68.2,79.7,73.4,67.6,98,80,51,30.05,29.91,6,1,0,0.01
2013-6-26,99.5,79.8,67.8,80.4,73.9,67.2,98,84,55,29.95,29.82,6,0,0,0.00
2013-6-27,98.4,82.1,70.3,83.4,75.8,69.7,98,84,56,29.87,29.62,4,1,0,0.05
2013-6-28,106.2,83.8,67.1,81.1,74.6,66.5,98,78,38,29.71,29.50,4,0,0,0.01
2013-6-29,99.5,80.4,65.8,78.5,71.6,65.2,98,78,44,29.60,29.51,7,1,0,0.00
2013-6-30,92.5,77.8,68.5,77.4,72.0,67.9,98,84,54,29.72,29.60,9,1,0,0.00
2013-7-1,91.8,76.2,68.7,79.6,71.7,68.1,98,88,59,29.85,29.70,6,2,0,0.86
2013-7-2,90.5,77.2,68.5,79.3,73.1,67.9,98,88,65,30.03,29.85,6,2,0,0.09
2013-7-3,86.7,73.6,67.1,78.0,71.9,66.5,98,95,71,30.11,30.00,8,2,0,1.25
2013-7-4,84.4,71.3,66.4,83.8,70.7,65.8,98,98,94,30.11,30.02,6,1,0,2.44
2013-7-5,96.8,76.0,68.7,83.4,72.6,68.1,98,91,55,30.13,30.05,4,1,0,0.82
2013-7-6,92.1,76.6,69.6,83.2,73.8,69.0,98,92,62,30.12,29.97,7,2,0,0.63
2013-7-7,91.2,77.7,69.8,84.5,74.7,69.2,98,91,72,30.07,29.98,8,1,0,1.29
2013-7-8,95.0,79.1,70.9,81.5,74.9,70.3,98,89,58,30.09,29.99,6,1,0,0.02
2013-7-9,97.2,80.2,70.0,84.7,75.2,69.4,98,87,59,30.11,29.95,6,1,0,0.27
2013-7-10,94.3,78.1,70.3,80.4,74.3,69.7,98,89,62,30.04,29.85,6,1,0,0.03
2013-7-11,89.1,77.5,72.7,80.9,75.3,72.1,98,93,73,29.86,29.77,4,0,0,0.00
2013-7-12,94.1,76.3,65.7,79.5,72.1,65.1,98,89,59,29.89,29.76,6,1,0,2.08
2013-7-13,82.9,72.5,64.8,77.6,70.6,64.2,98,94,79,30.00,29.88,9,2,0,0.32
2013-7-14,84.6,75.4,70.0,79.9,73.5,69.4,98,94,79,30.15,29.98,8,2,0,0.15
2013-7-15,91.6,77.6,68.9,79.1,73.1,68.3,98,87,62,30.22,30.12,7,2,0,0.01
2013-7-16,102.4,82.6,67.3,80.8,74.4,66.7,98,80,48,30.22,30.11,5,1,0,0.00
2013-7-17,105.4,80.9,68.5,83.0,73.6,67.9,98,82,46,30.17,30.01,6,1,0,0.39
2013-7-18,99.3,81.7,67.3,82.9,74.2,66.7,98,81,51,30.11,29.96,5,1,0,0.00
2013-7-19,101.1,83.2,68.0,82.9,75.4,67.4,98,80,51,30.03,29.88,5,1,0,0.00
2013-7-20,95.5,78.8,71.1,81.7,75.6,70.5,98,91,63,29.94,29.84,7,1,0,0.07
2013-7-21,95.5,77.9,69.4,81.8,73.8,68.8,98,89,62,29.92,29.80,6,1,0,2.23
2013-7-22,97.2,79.7,70.0,81.9,74.5,69.4,98,86,58,29.91,29.75,6,1,0,0.04
2013-7-23,102.6,82.8,68.2,80.2,74.8,67.6,98,80,49,29.80,29.67,4,0,0,0.00
2013-7-24,104.0,79.6,67.6,81.6,73.7,67.0,98,85,50,29.73,29.66,5,0,0,0.07
2013-7-25,97.7,78.0,65.1,78.2,71.3,64.5,98,82,52,29.91,29.73,6,1,0,0.26
2013-7-26,94.8,78.2,66.2,78.2,72.5,65.6,98,84,55,29.99,29.88,5,1,0,0.00
2013-7-27,92.7,77.3,70.0,81.3,74.2,69.4,98,91,66,29.92,29.78,5,0,0,1.30
2013-7-28,99.9,77.6,65.3,79.8,71.5,64.7,98,84,51,29.93,29.81,4,0,0,0.00
2013-7-29,100.0,77.5,63.9,75.8,69.8,63.3,98,81,41,30.05,29.91,4,0,0,0.00
2013-7-30,96.8,78.5,61.5,78.5,70.9,60.9,98,80,51,30.11,30.00,5,1,0,0.06
2013-7-31,86.2,75.1,68.4,79.7,72.7,67.8,98,93,74,30.08,29.86,6,1,0,0.54
2013-8-1,101.8,78.6,72.0,82.5,74.5,71.3,98,89,54,29.90,29.78,3,0,0,0.04
2013-8-2,102.0,80.5,66.2,79.2,72.8,65.6,98,81,47,29.93,29.82,4,1,0,0.00
2013-8-3,99.3,81.0,67.3,82.1,73.4,66.7,98,81,49,29.93,29.84,4,0,0,0.00
2013-8-4,104.4,80.8,67.6,79.1,72.8,67.0,98,80,44,29.91,29.84,7,1,0,0.00
2013-8-5,91.4,77.5,66.7,77.6,71.7,66.1,98,84,62,29.96,29.85,5,1,0,0.00
2013-8-6,94.6,77.3,70.5,80.5,74.1,69.9,98,91,59,29.95,29.85,8,2,0,3.11
2013-8-7,87.3,74.4,72.0,80.8,73.3,71.4,98,97,79,29.97,29.90,7,1,0,4.28
2013-8-8,89.8,76.9,71.4,81.6,74.9,70.8,98,94,76,29.97,29.90,4,0,0,0.29
2013-8-9,100.0,79.1,70.2,84.1,75.5,69.6,98,90,59,29.99,29.91,5,0,0,0.83
2013-8-10,96.4,78.6,71.4,83.8,75.9,70.8,98,92,63,30.02,29.95,3,0,0,0.56
2013-8-11,103.3,81.4,70.2,83.5,75.9,69.6,98,86,53,30.04,29.95,4,0,0,1.15
2013-8-12,102.2,81.4,68.9,83.1,75.4,68.3,98,84,53,30.00,29.85,3,0,0,0.00
2013-8-13,101.7,79.8,70.0,81.9,75.1,69.4,98,87,53,29.89,29.72,5,0,0,0.00
2013-8-14,86.9,74.1,68.5,73.7,70.5,67.9,98,89,65,29.96,29.77,5,1,0,0.00
2013-8-15,77.9,69.1,64.2,67.6,64.5,62.4,98,86,63,30.03,29.94,7,2,0,0.00
2013-8-16,79.7,66.4,60.3,69.0,63.6,59.7,98,92,70,30.05,29.95,8,2,0,0.17
2013-8-17,72.5,67.4,63.0,71.9,65.6,62.2,98,94,80,30.07,30.00,8,2,0,0.17
2013-8-18,78.3,72.7,68.2,77.7,72.1,67.6,98,98,98,30.12,30.03,4,0,0,0.35
2013-8-19,80.8,72.5,68.0,75.5,71.3,67.4,98,96,82,30.09,29.97,5,1,0,2.32
2013-8-20,85.8,72.8,66.2,76.9,70.6,65.6,98,93,71,30.09,30.01,5,1,0,0.01
2013-8-21,86.5,72.9,69.3,80.3,71.7,68.7,98,96,80,30.14,30.02,2,0,0,0.23
2013-8-22,81.5,69.9,67.5,77.6,69.1,66.9,98,97,88,30.07,29.94,0,0,0,0.00
2013-8-23,93.0,72.3,68.4,79.8,70.8,67.8,98,96,64,29.97,29.87,7,0,0,0.15
2013-8-24,88.5,73.6,61.9,72.5,67.6,61.3,98,84,56,30.17,29.95,14,2,0,0.01
2013-8-25,88.5,70.9,56.3,70.3,63.3,55.7,98,80,47,30.29,30.16,7,2,0,0.00
2013-8-26,93.7,73.2,56.3,72.3,65.6,55.7,98,81,49,30.23,30.02,4,0,0,0.00
2013-8-27,100.2,76.0,58.6,77.8,68.7,58.0,98,82,45,30.06,29.90,4,0,0,0.00
2013-8-28,104.0,79.8,63.9,81.2,72.0,63.3,98,81,46,29.94,29.82,4,0,0,0.00
2013-8-29,104.0,80.6,66.0,82.4,74.3,65.4,98,84,46,29.86,29.78,6,0,0,0.00
2013-8-30,92.3,77.3,72.0,79.6,74.4,71.4,98,92,62,29.95,29.83,4,1,0,0.00
2013-8-31,96.6,78.1,68.7,82.5,74.5,68.1,98,90,58,29.86,29.78,5,0,0,0.22
2013-9-1,97.9,78.1,68.4,83.0,74.8,67.8,98,91,61,29.82,29.70,5,1,0,0.27
2013-9-2,94.8,79.4,70.3,81.4,75.0,69.7,98,88,60,29.81,29.71,2,0,0,0.00
2013-9-3,99.1,77.5,66.2,79.1,72.0,65.6,98,86,52,29.88,29.73,5,1,0,0.47
2013-9-4,96.4,77.7,64.6,77.5,70.6,64.0,98,82,51,30.00,29.86,5,1,0,0.00
2013-9-5,101.3,78.8,64.0,79.1,71.3,63.4,98,82,42,30.02,29.94,4,0,0,0.19
2013-9-6,91.8,73.8,61.3,71.4,66.7,60.7,98,82,48,30.07,29.96,8,1,0,0.00
2013-9-7,96.6,74.1,60.8,74.9,67.4,60.2,98,83,48,30.03,29.88,5,0,0,0.00
2013-9-8,102.0,76.1,59.7,79.0,69.3,59.1,98,83,44,29.90,29.83,5,0,0,0.00
2013-9-9,95.2,76.7,63.3,77.6,70.4,62.7,98,83,54,30.04,29.90,5,1,0,0.00
2013-9-10,97.2,77.3,64.4,78.9,70.6,63.8,98,83,49,30.14,30.03,7,1,0,0.00
2013-9-11,99.7,77.5,61.9,80.0,70.1,61.3,98,82,47,30.13,29.99,6,0,0,0.00
2013-9-12,99.3,76.4,65.3,80.1,71.2,64.7,98,86,47,30.00,29.76,4,0,0,0.00
2013-9-13,99.7,76.7,59.5,76.5,66.8,58.9,98,77,36,29.77,29.66,4,0,0,0.00
2013-9-14,85.5,66.5,52.2,64.5,58.7,51.7,98,80,48,29.97,29.78,9,1,0,0.00
2013-9-15,88.9,70.1,56.8,72.7,64.7,56.2,98,85,57,30.10,29.98,4,1,0,0.00
2013-9-16,97.9,75.1,60.1,76.6,68.3,59.5,98,82,44,30.04,29.93,4,0,0,0.00
2013-9-17,74.7,69.2,64.0,66.6,62.6,60.2,95,80,67,30.19,30.03,11,2,0,0.00
2013-9-18,81.3,69.1,59.5,66.3,62.6,57.5,98,81,59,30.18,30.05,7,1,0,0.00
2013-9-19,94.3,73.3,56.5,72.8,66.2,55.9,98,82,50,30.08,29.96,4,1,0,0.00
2013-9-20,98.2,74.9,59.9,75.5,67.7,59.3,98,82,46,29.99,29.81,5,1,0,0.00
2013-9-21,74.3,67.3,61.9,73.4,66.7,61.3,98,98,96,29.83,29.53,5,1,0,1.27
2013-9-22,86.0,66.6,56.3,70.9,62.7,55.7,98,89,55,29.74,29.62,5,1,0,0.00